createdAt,value
2018-08-11T00:01:22.579Z,99.90
2018-08-11T00:03:51.114Z,99.90
2018-08-11T00:06:19.769Z,99.90
2018-08-11T00:08:48.279Z,99.90
2018-08-11T00:11:16.809Z,99.90
2018-08-11T00:13:45.357Z,99.90
2018-08-11T00:16:13.955Z,99.90
2018-08-11T00:18:42.513Z,99.90
2018-08-11T00:21:11.099Z,99.90
2018-08-11T00:23:39.601Z,99.90
2018-08-11T00:26:08.107Z,99.90
2018-08-11T00:28:36.666Z,99.90
2018-08-11T00:31:05.419Z,99.90
2018-08-11T00:33:33.898Z,99.90
2018-08-11T00:36:02.411Z,99.90
2018-08-11T00:38:30.960Z,99.90
2018-08-11T00:40:59.286Z,99.90
2018-08-11T00:43:27.567Z,99.90
2018-08-11T00:45:55.840Z,99.90
2018-08-11T00:48:24.126Z,99.90
2018-08-11T00:50:52.414Z,99.90
2018-08-11T00:53:20.690Z,99.90
2018-08-11T00:55:48.999Z,99.90
2018-08-11T00:58:17.274Z,99.90
2018-08-11T01:00:45.573Z,99.90
2018-08-11T01:03:13.882Z,99.90
2018-08-11T01:05:42.152Z,99.90
2018-08-11T01:08:10.434Z,99.90
2018-08-11T01:10:38.756Z,99.90
2018-08-11T01:13:07.039Z,99.90
2018-08-11T01:15:35.337Z,99.90
2018-08-11T01:18:04.131Z,99.90
2018-08-11T01:20:32.442Z,99.90
2018-08-11T01:23:00.736Z,99.90
2018-08-11T01:25:29.040Z,99.90
2018-08-11T01:27:57.312Z,99.90
2018-08-11T01:30:25.606Z,99.90
2018-08-11T01:32:53.947Z,99.90
2018-08-11T01:35:22.242Z,99.90
2018-08-11T01:37:50.562Z,99.90
2018-08-11T01:40:18.877Z,99.90
2018-08-11T01:42:48.198Z,99.90
2018-08-11T01:45:17.037Z,99.90
2018-08-11T01:47:45.370Z,99.90
2018-08-11T01:50:15.298Z,99.90
2018-08-11T01:52:45.851Z,99.90
2018-08-11T01:55:15.574Z,99.90
2018-08-11T01:57:43.936Z,99.90
2018-08-11T02:00:13.732Z,99.90
2018-08-11T02:02:42.126Z,99.90
2018-08-11T02:05:11.606Z,99.90
2018-08-11T02:07:41.290Z,99.90
2018-08-11T02:10:12.186Z,99.90
2018-08-11T02:12:40.501Z,99.90
2018-08-11T02:15:10.248Z,99.90
2018-08-11T02:17:38.516Z,99.90
2018-08-11T02:20:09.148Z,99.90
2018-08-11T02:22:37.422Z,99.90
2018-08-11T02:25:06.623Z,99.90
2018-08-11T02:27:34.942Z,99.90
2018-08-11T02:30:03.272Z,99.90
2018-08-11T02:32:31.596Z,99.90
2018-08-11T02:34:59.882Z,99.90
2018-08-11T02:37:28.170Z,99.90
2018-08-11T02:39:56.459Z,99.90
2018-08-11T02:42:24.729Z,99.90
2018-08-11T02:44:53.025Z,99.90
2018-08-11T02:47:21.305Z,99.90
2018-08-11T02:49:49.580Z,99.90
2018-08-11T02:52:17.914Z,99.90
2018-08-11T02:54:46.194Z,99.90
2018-08-11T02:57:14.460Z,99.90
2018-08-11T02:59:42.742Z,99.90
2018-08-11T03:02:11.026Z,99.90
2018-08-11T03:04:39.311Z,99.90
2018-08-11T03:07:07.593Z,99.90
2018-08-11T03:09:35.908Z,99.90
2018-08-11T03:12:04.216Z,99.90
2018-08-11T03:14:32.547Z,99.90
2018-08-11T03:17:00.813Z,99.90
2018-08-11T03:19:29.094Z,99.90
2018-08-11T03:21:57.364Z,99.90
2018-08-11T03:24:25.650Z,99.90
2018-08-11T03:26:53.963Z,99.90
2018-08-11T03:29:22.237Z,99.90
2018-08-11T03:31:50.511Z,99.90
2018-08-11T03:34:18.776Z,99.90
2018-08-11T03:36:47.052Z,99.90
2018-08-11T03:39:15.331Z,99.90
2018-08-11T03:41:43.617Z,99.90
2018-08-11T03:44:11.894Z,99.90
2018-08-11T03:46:40.218Z,99.90
2018-08-11T03:49:08.501Z,99.90
2018-08-11T03:51:36.777Z,99.90
2018-08-11T03:54:05.107Z,99.90
2018-08-11T03:56:33.435Z,99.90
2018-08-11T03:59:01.746Z,99.90
2018-08-11T04:01:30.072Z,99.90
2018-08-11T04:03:58.336Z,99.90
2018-08-11T04:06:26.607Z,99.90
2018-08-11T04:08:54.883Z,99.90
2018-08-11T04:11:23.165Z,99.90
2018-08-11T04:13:51.438Z,99.90
2018-08-11T04:16:19.754Z,99.90
2018-08-11T04:18:48.032Z,99.90
2018-08-11T04:21:16.360Z,99.90
2018-08-11T04:23:44.632Z,99.90
2018-08-11T04:26:12.914Z,99.90
2018-08-11T04:28:41.181Z,99.90
2018-08-11T04:31:09.465Z,99.90
2018-08-11T04:33:37.733Z,99.90
2018-08-11T04:36:06.010Z,99.90
2018-08-11T04:38:34.294Z,99.90
2018-08-11T04:41:02.616Z,99.90
2018-08-11T04:43:30.891Z,99.90
2018-08-11T04:45:59.169Z,99.90
2018-08-11T04:48:27.441Z,99.90
2018-08-11T04:50:55.741Z,99.90
2018-08-11T04:53:24.002Z,99.90
2018-08-11T04:55:52.275Z,99.90
2018-08-11T04:58:20.603Z,99.90
2018-08-11T05:00:48.937Z,99.90
2018-08-11T05:03:17.170Z,99.90
2018-08-11T05:05:45.470Z,99.90
2018-08-11T05:08:13.740Z,99.90
2018-08-11T05:10:42.017Z,99.90
2018-08-11T05:13:10.289Z,99.90
2018-08-11T05:15:38.558Z,99.90
2018-08-11T05:18:06.841Z,99.90
2018-08-11T05:20:35.119Z,99.90
2018-08-11T05:23:03.398Z,99.90
2018-08-11T05:25:31.685Z,99.90
2018-08-11T05:27:59.990Z,99.90
2018-08-11T05:30:28.303Z,99.90
2018-08-11T05:32:56.594Z,99.90
2018-08-11T05:35:24.907Z,99.90
2018-08-11T05:37:53.210Z,99.90
2018-08-11T05:40:21.500Z,99.90
2018-08-11T05:42:49.808Z,99.90
2018-08-11T05:45:18.087Z,99.90
2018-08-11T05:47:46.418Z,99.90
2018-08-11T05:50:14.688Z,99.90
2018-08-11T05:52:42.976Z,99.90
2018-08-11T05:55:11.293Z,99.90
2018-08-11T05:57:39.560Z,99.90
2018-08-11T06:00:09.166Z,99.90
2018-08-11T06:02:37.489Z,99.90
2018-08-11T06:05:06.394Z,99.90
2018-08-11T06:07:34.734Z,99.90
2018-08-11T06:10:03.198Z,99.90
2018-08-11T06:12:31.487Z,99.90
2018-08-11T06:14:59.757Z,99.90
2018-08-11T06:17:28.079Z,99.90
2018-08-11T06:19:56.366Z,99.90
2018-08-11T06:22:24.654Z,99.90
2018-08-11T06:24:52.971Z,99.90
2018-08-11T06:27:21.244Z,99.90
2018-08-11T06:29:49.573Z,99.90
2018-08-11T06:32:17.972Z,99.90
2018-08-11T06:34:46.126Z,99.90
2018-08-11T06:37:14.405Z,99.90
2018-08-11T06:39:42.710Z,99.90
2018-08-11T06:42:10.995Z,99.90
2018-08-11T06:44:39.256Z,99.90
2018-08-11T06:47:07.586Z,99.90
2018-08-11T06:49:35.802Z,99.90
2018-08-11T06:52:04.290Z,99.90
2018-08-11T06:54:32.781Z,99.90
2018-08-11T06:57:01.355Z,99.90
2018-08-11T06:59:29.863Z,99.90
2018-08-11T07:01:58.292Z,99.90
2018-08-11T07:04:26.753Z,99.90
2018-08-11T07:06:55.278Z,99.90
2018-08-11T07:09:30.521Z,99.90
2018-08-11T07:11:59.059Z,99.90
2018-08-11T07:14:27.566Z,99.90
2018-08-11T07:16:56.115Z,99.90
2018-08-11T07:19:24.740Z,99.90
2018-08-11T07:21:53.245Z,99.90
2018-08-11T07:24:21.816Z,99.90
2018-08-11T07:26:50.349Z,99.90
2018-08-11T07:29:18.880Z,99.90
2018-08-11T07:31:47.378Z,99.90
2018-08-11T07:34:15.962Z,99.90
2018-08-11T07:36:46.066Z,99.90
2018-08-11T07:39:14.556Z,99.90
2018-08-11T07:41:43.163Z,99.90
2018-08-11T07:44:11.722Z,99.90
2018-08-11T07:46:40.256Z,99.90
2018-08-11T07:49:08.939Z,99.90
2018-08-11T07:51:37.514Z,99.90
2018-08-11T07:54:06.060Z,99.90
2018-08-11T07:56:34.605Z,99.90
2018-08-11T07:59:03.173Z,99.90
2018-08-11T08:01:31.759Z,99.90
2018-08-11T08:04:00.254Z,99.90
2018-08-11T08:06:28.845Z,99.90
2018-08-11T08:08:57.395Z,99.90
2018-08-11T08:11:25.911Z,99.90
2018-08-11T08:13:54.517Z,99.90
2018-08-11T08:16:23.027Z,99.90
2018-08-11T08:18:51.595Z,99.90
2018-08-11T08:21:20.157Z,99.90
2018-08-11T08:23:48.688Z,99.90
2018-08-11T08:26:17.395Z,99.90
2018-08-11T08:28:45.743Z,99.90
2018-08-11T08:31:14.230Z,99.90
2018-08-11T08:33:42.720Z,99.90
2018-08-11T08:36:11.386Z,99.90
2018-08-11T08:38:39.883Z,99.90
2018-08-11T08:41:08.375Z,99.90
2018-08-11T08:43:36.909Z,99.90
2018-08-11T08:46:05.640Z,99.90
2018-08-11T08:48:34.220Z,99.90
2018-08-11T08:51:03.038Z,99.90
2018-08-11T08:53:31.510Z,99.90
2018-08-11T08:56:00.083Z,99.90
2018-08-11T08:58:28.659Z,99.90
2018-08-11T09:00:57.164Z,99.90
2018-08-11T09:03:25.748Z,99.90
2018-08-11T09:05:54.327Z,99.90
2018-08-11T09:08:22.922Z,99.90
2018-08-11T09:10:51.595Z,99.90
2018-08-11T09:13:20.070Z,99.90
2018-08-11T09:15:48.582Z,99.90
2018-08-11T09:18:17.119Z,99.90
2018-08-11T09:20:45.683Z,99.90
2018-08-11T09:23:14.210Z,99.90
2018-08-11T09:25:42.783Z,99.90
2018-08-11T09:28:11.229Z,99.90
2018-08-11T09:30:39.692Z,98.40
2018-08-11T09:33:08.198Z,98.10
2018-08-11T09:35:36.768Z,96.20
2018-08-11T09:38:05.319Z,95.50
2018-08-11T09:40:33.876Z,95.60
2018-08-11T09:43:02.481Z,93.10
2018-08-11T09:45:31.059Z,92.30
2018-08-11T09:47:59.637Z,92.60
2018-08-11T09:50:28.182Z,88.50
2018-08-11T09:52:56.669Z,90.00
2018-08-11T09:55:25.103Z,87.60
2018-08-11T09:57:53.588Z,90.40
2018-08-11T10:00:27.592Z,92.20
2018-08-11T10:02:56.162Z,89.40
2018-08-11T10:05:24.719Z,87.60
2018-08-11T10:07:53.297Z,90.50
2018-08-11T10:10:21.846Z,86.90
2018-08-11T10:12:50.385Z,84.20
2018-08-11T10:15:18.900Z,88.00
2018-08-11T10:17:47.465Z,84.70
2018-08-11T10:20:15.958Z,79.00
2018-08-11T10:22:44.647Z,76.00
2018-08-11T10:25:13.171Z,82.30
2018-08-11T10:27:41.637Z,74.90
2018-08-11T10:30:10.438Z,73.40
2018-08-11T10:32:38.963Z,76.20
2018-08-11T10:35:07.621Z,85.40
2018-08-11T10:37:36.211Z,83.00
2018-08-11T10:40:04.900Z,88.40
2018-08-11T10:42:33.510Z,82.80
2018-08-11T10:45:02.032Z,76.10
2018-08-11T10:47:30.544Z,77.30
2018-08-11T10:49:59.101Z,72.60
2018-08-11T10:52:27.663Z,70.50
2018-08-11T10:54:56.211Z,66.30
2018-08-11T10:57:24.762Z,68.40
2018-08-11T10:59:53.355Z,68.90
2018-08-11T11:02:21.869Z,65.10
2018-08-11T11:04:50.525Z,74.10
2018-08-11T11:07:21.605Z,73.00
2018-08-11T11:09:50.112Z,74.20
2018-08-11T11:12:18.648Z,74.80
2018-08-11T11:14:47.161Z,74.30
2018-08-11T11:17:15.715Z,75.70
2018-08-11T11:19:44.142Z,73.10
2018-08-11T11:22:12.618Z,70.90
2018-08-11T11:24:41.198Z,76.00
2018-08-11T11:27:09.745Z,71.10
2018-08-11T11:29:38.531Z,67.60
2018-08-11T11:32:07.074Z,71.10
2018-08-11T11:34:35.583Z,74.40
2018-08-11T11:37:04.277Z,75.80
2018-08-11T11:39:32.905Z,79.10
2018-08-11T11:42:01.459Z,79.40
2018-08-11T11:44:29.948Z,82.90
2018-08-11T11:46:58.510Z,82.90
2018-08-11T11:49:26.975Z,75.90
2018-08-11T11:51:55.546Z,73.30
2018-08-11T11:54:24.065Z,74.30
2018-08-11T11:56:52.604Z,72.10
2018-08-11T11:59:21.029Z,72.70
2018-08-11T12:01:49.534Z,70.60
2018-08-11T12:04:18.046Z,68.90
2018-08-11T12:06:46.568Z,72.00
2018-08-11T12:09:15.089Z,70.50
2018-08-11T12:11:43.470Z,73.00
2018-08-11T12:14:12.046Z,67.60
2018-08-11T12:16:40.442Z,65.50
2018-08-11T12:19:08.995Z,68.10
2018-08-11T12:21:37.491Z,69.20
2018-08-11T12:24:06.621Z,66.60
2018-08-11T12:26:35.188Z,65.80
2018-08-11T12:29:03.757Z,71.20
2018-08-11T12:31:32.350Z,72.10
2018-08-11T12:34:00.942Z,68.10
2018-08-11T12:36:29.568Z,71.50
2018-08-11T12:38:58.301Z,70.30
2018-08-11T12:41:33.310Z,71.10
2018-08-11T12:44:02.073Z,72.40
2018-08-11T12:46:30.931Z,66.30
2018-08-11T12:48:59.685Z,66.20
2018-08-11T12:51:28.809Z,70.90
2018-08-11T12:53:57.607Z,66.50
2018-08-11T12:56:26.322Z,68.00
2018-08-11T12:58:54.992Z,65.00
2018-08-11T13:01:24.124Z,68.00
2018-08-11T13:06:32.110Z,63.00
2018-08-11T13:09:00.554Z,61.70
2018-08-11T13:11:29.028Z,60.90
2018-08-11T13:13:57.664Z,62.50
2018-08-11T13:16:26.447Z,66.10
2018-08-11T13:18:55.129Z,65.10
2018-08-11T13:21:23.745Z,63.60
2018-08-11T13:23:52.652Z,62.40
2018-08-11T13:26:22.607Z,59.90
2018-08-11T13:28:52.012Z,62.00
2018-08-11T13:31:21.127Z,62.10
2018-08-11T13:33:51.187Z,60.90
2018-08-11T13:36:20.292Z,59.20
2018-08-11T13:38:48.992Z,58.90
2018-08-11T13:41:17.993Z,58.20
2018-08-11T13:43:46.841Z,60.60
2018-08-11T13:46:15.801Z,55.00
2018-08-11T13:48:44.277Z,55.60
2018-08-11T13:51:13.025Z,57.30
2018-08-11T13:53:41.580Z,54.10
2018-08-11T13:56:10.030Z,58.30
2018-08-11T13:58:38.440Z,61.10
2018-08-11T14:01:06.908Z,63.30
2018-08-11T14:03:35.368Z,60.60
2018-08-11T14:06:03.853Z,53.60
2018-08-11T14:08:32.268Z,56.70
2018-08-11T14:11:00.648Z,58.00
2018-08-11T14:13:30.239Z,55.30
2018-08-11T14:15:58.509Z,53.20
2018-08-11T14:18:26.789Z,54.40
2018-08-11T14:20:55.086Z,52.00
2018-08-11T14:23:23.384Z,54.30
2018-08-11T14:25:51.755Z,59.70
2018-08-11T14:28:20.683Z,59.70
2018-08-11T14:30:48.989Z,58.00
2018-08-11T14:33:17.272Z,57.90
2018-08-11T14:35:45.554Z,56.70
2018-08-11T14:38:13.838Z,55.90
2018-08-11T14:40:42.113Z,55.40
2018-08-11T14:43:10.409Z,56.10
2018-08-11T14:45:38.723Z,56.30
2018-08-11T14:48:07.095Z,57.70
2018-08-11T14:50:35.331Z,59.10
2018-08-11T14:53:03.674Z,60.40
2018-08-11T14:55:31.960Z,62.50
2018-08-11T14:58:00.493Z,62.10
2018-08-11T15:00:28.777Z,60.50
2018-08-11T15:02:57.120Z,65.10
2018-08-11T15:05:25.409Z,62.20
2018-08-11T15:07:53.698Z,65.80
2018-08-11T15:10:21.969Z,64.80
2018-08-11T15:12:50.277Z,65.90
2018-08-11T15:15:18.596Z,63.20
2018-08-11T15:17:46.884Z,64.40
2018-08-11T15:20:15.189Z,63.90
2018-08-11T15:22:43.624Z,67.20
2018-08-11T15:25:11.961Z,65.00
2018-08-11T15:27:40.512Z,63.60
2018-08-11T15:30:10.884Z,64.90
2018-08-11T15:32:39.238Z,63.50
2018-08-11T15:35:08.532Z,65.70
2018-08-11T15:37:36.832Z,65.60
2018-08-11T15:40:05.634Z,66.40
2018-08-11T15:42:34.024Z,65.80
2018-08-11T15:45:02.560Z,61.90
2018-08-11T15:47:30.898Z,61.60
2018-08-11T15:49:59.418Z,63.70
2018-08-11T15:52:27.707Z,66.80
2018-08-11T15:54:56.043Z,67.20
2018-08-11T15:57:24.313Z,65.60
2018-08-11T15:59:52.610Z,66.20
2018-08-11T16:02:20.931Z,66.90
2018-08-11T16:04:49.297Z,66.70
2018-08-11T16:07:17.674Z,68.00
2018-08-11T16:09:45.941Z,68.40
2018-08-11T16:12:14.245Z,68.50
2018-08-11T16:14:42.534Z,69.70
2018-08-11T16:17:10.816Z,67.80
2018-08-11T16:19:39.130Z,68.00
2018-08-11T16:22:07.426Z,68.70
2018-08-11T16:24:35.721Z,69.30
2018-08-11T16:27:04.101Z,69.40
2018-08-11T16:29:32.569Z,67.40
2018-08-11T16:32:00.836Z,68.00
2018-08-11T16:34:29.125Z,68.50
2018-08-11T16:36:57.424Z,69.20
2018-08-11T16:39:26.686Z,68.50
2018-08-11T16:41:54.986Z,69.90
2018-08-11T16:44:23.269Z,68.40
2018-08-11T16:46:51.548Z,69.10
2018-08-11T16:49:19.868Z,67.70
2018-08-11T16:51:48.185Z,70.70
2018-08-11T16:54:16.472Z,68.30
2018-08-11T16:56:44.756Z,70.10
2018-08-11T16:59:13.042Z,70.10
2018-08-11T17:01:41.395Z,70.40
2018-08-11T17:04:09.817Z,71.10
2018-08-11T17:06:38.192Z,72.80
2018-08-11T17:09:08.858Z,72.80
2018-08-11T17:11:37.174Z,71.60
2018-08-11T17:14:06.219Z,72.70
2018-08-11T17:16:34.516Z,72.20
2018-08-11T17:19:02.833Z,72.30
2018-08-11T17:21:31.151Z,73.80
2018-08-11T17:23:59.796Z,74.40
2018-08-11T17:26:28.091Z,76.60
2018-08-11T17:28:56.407Z,75.60
2018-08-11T17:31:24.693Z,74.80
2018-08-11T17:33:52.950Z,75.60
2018-08-11T17:36:21.241Z,75.80
2018-08-11T17:38:49.654Z,75.50
2018-08-11T17:41:17.883Z,75.60
2018-08-11T17:43:46.201Z,76.10
2018-08-11T17:46:14.509Z,78.00
2018-08-11T17:48:42.785Z,80.20
2018-08-11T17:51:11.153Z,81.20
2018-08-11T17:53:39.432Z,82.00
2018-08-11T17:56:07.737Z,82.80
2018-08-11T17:58:36.040Z,84.00
2018-08-11T18:01:04.334Z,82.90
2018-08-11T18:03:32.606Z,84.60
2018-08-11T18:06:00.925Z,83.90
2018-08-11T18:08:29.217Z,84.00
2018-08-11T18:10:57.551Z,85.20
2018-08-11T18:13:25.833Z,85.90
2018-08-11T18:15:54.109Z,86.40
2018-08-11T18:18:24.591Z,87.60
2018-08-11T18:20:52.920Z,88.50
2018-08-11T18:23:21.211Z,91.60
2018-08-11T18:25:49.497Z,90.40
2018-08-11T18:28:17.813Z,92.10
2018-08-11T18:30:46.085Z,93.90
2018-08-11T18:33:14.379Z,95.20
2018-08-11T18:35:42.727Z,95.80
2018-08-11T18:38:11.176Z,99.10
2018-08-11T18:40:39.457Z,99.90
2018-08-11T18:43:07.753Z,99.90
2018-08-11T18:45:36.037Z,99.90
2018-08-11T18:48:04.515Z,99.90
2018-08-11T18:50:32.835Z,99.90
2018-08-11T18:53:01.149Z,99.90
2018-08-11T18:55:29.494Z,99.90
2018-08-11T18:57:57.975Z,99.90
2018-08-11T19:00:26.265Z,99.90
2018-08-11T19:02:54.580Z,99.90
2018-08-11T19:05:22.873Z,99.90
2018-08-11T19:07:51.165Z,99.90
2018-08-11T19:10:19.496Z,99.90
2018-08-11T19:12:47.779Z,99.90
2018-08-11T19:15:16.054Z,99.90
2018-08-11T19:17:44.361Z,99.90
2018-08-11T19:20:13.780Z,99.90
2018-08-11T19:22:42.153Z,99.90
2018-08-11T19:25:11.455Z,99.90
2018-08-11T19:27:39.965Z,99.90
2018-08-11T19:30:09.813Z,99.90
2018-08-11T19:32:38.692Z,99.90
2018-08-11T19:35:07.082Z,99.90
2018-08-11T19:37:35.810Z,99.90
2018-08-11T19:40:05.514Z,99.90
2018-08-11T19:42:33.801Z,99.90
2018-08-11T19:45:02.317Z,99.90
2018-08-11T19:47:30.663Z,99.90
2018-08-11T19:49:59.012Z,99.90
2018-08-11T19:52:27.333Z,99.90
2018-08-11T19:54:55.646Z,99.90
2018-08-11T19:57:23.942Z,99.90
2018-08-11T19:59:52.217Z,99.90
2018-08-11T20:02:20.514Z,99.90
2018-08-11T20:04:48.802Z,99.90
2018-08-11T20:07:17.347Z,99.90
2018-08-11T20:09:45.604Z,99.90
2018-08-11T20:12:13.938Z,99.90
2018-08-11T20:14:42.237Z,99.90
2018-08-11T20:17:10.529Z,99.90
2018-08-11T20:19:38.830Z,99.90
2018-08-11T20:22:12.391Z,99.90
2018-08-11T20:24:40.720Z,99.90
2018-08-11T20:27:09.105Z,99.90
2018-08-11T20:29:38.718Z,99.90
2018-08-11T20:32:07.009Z,99.90
2018-08-11T20:34:35.321Z,99.90
2018-08-11T20:37:03.658Z,99.90
2018-08-11T20:39:31.966Z,99.90
2018-08-11T20:42:00.275Z,99.90
2018-08-11T20:44:28.615Z,99.90
2018-08-11T20:46:56.925Z,99.90
2018-08-11T20:49:25.205Z,99.90
2018-08-11T20:51:53.535Z,99.90
2018-08-11T20:54:21.877Z,99.90
2018-08-11T20:56:50.219Z,99.90
2018-08-11T20:59:18.514Z,99.90
2018-08-11T21:01:47.080Z,99.90
2018-08-11T21:04:15.364Z,99.90
2018-08-11T21:06:43.826Z,99.90
2018-08-11T21:09:13.253Z,99.90
2018-08-11T21:11:41.761Z,99.90
2018-08-11T21:14:10.740Z,99.90
2018-08-11T21:16:39.116Z,99.90
2018-08-11T21:19:07.453Z,99.90
2018-08-11T21:21:35.914Z,99.90
2018-08-11T21:24:04.323Z,99.90
2018-08-11T21:26:32.693Z,99.90
2018-08-11T21:29:01.003Z,99.90
2018-08-11T21:31:29.396Z,99.90
2018-08-11T21:33:57.697Z,99.90
2018-08-11T21:36:25.980Z,99.90
2018-08-11T21:38:54.337Z,99.90
2018-08-11T21:41:22.722Z,99.90
2018-08-11T21:43:51.008Z,99.90
2018-08-11T21:46:19.280Z,99.90
2018-08-11T21:48:47.600Z,99.90
2018-08-11T21:51:15.905Z,99.90
2018-08-11T21:53:44.214Z,99.90
2018-08-11T21:56:12.527Z,99.90
2018-08-11T21:58:40.804Z,99.90
2018-08-11T22:01:13.629Z,99.90
2018-08-11T22:03:42.839Z,99.90
2018-08-11T22:06:11.844Z,99.90
2018-08-11T22:08:40.486Z,99.90
2018-08-11T22:11:08.845Z,99.90
2018-08-11T22:13:37.142Z,99.90
2018-08-11T22:16:06.274Z,99.90
2018-08-11T22:18:34.960Z,99.90
2018-08-11T22:21:03.261Z,99.90
2018-08-11T22:23:31.570Z,99.90
2018-08-11T22:25:59.857Z,99.90
2018-08-11T22:28:28.175Z,99.90
2018-08-11T22:30:56.490Z,99.90
2018-08-11T22:33:24.845Z,99.90
2018-08-11T22:35:53.232Z,99.90
2018-08-11T22:38:21.597Z,99.90
2018-08-11T22:40:49.923Z,99.90
2018-08-11T22:43:18.288Z,99.90
2018-08-11T22:45:46.600Z,99.90
2018-08-11T22:48:14.916Z,99.90
2018-08-11T22:50:43.200Z,99.90
2018-08-11T22:53:11.482Z,99.90
2018-08-11T22:55:39.759Z,99.90
2018-08-11T22:58:08.049Z,99.90
2018-08-11T23:00:36.317Z,99.90
2018-08-11T23:03:05.824Z,99.90
2018-08-11T23:05:34.161Z,99.90
2018-08-11T23:08:02.514Z,99.90
2018-08-11T23:10:30.780Z,99.90
2018-08-11T23:12:59.098Z,99.90
2018-08-11T23:15:27.400Z,99.90
2018-08-11T23:17:55.680Z,99.90
2018-08-11T23:20:25.003Z,99.90
2018-08-11T23:22:53.356Z,99.90
2018-08-11T23:25:21.686Z,99.90
2018-08-11T23:27:50.549Z,99.90
2018-08-11T23:30:18.846Z,99.90
2018-08-11T23:32:47.152Z,99.90
2018-08-11T23:35:15.579Z,99.90
2018-08-11T23:37:44.123Z,99.90
2018-08-11T23:40:12.519Z,99.90
2018-08-11T23:42:40.934Z,99.90
2018-08-11T23:45:11.534Z,99.90
2018-08-11T23:47:40.300Z,99.90
2018-08-11T23:50:09.339Z,99.90
2018-08-11T23:52:37.839Z,99.90
2018-08-11T23:55:06.777Z,99.90
2018-08-11T23:57:35.281Z,99.90
